Home > Products > Valid Products > MTR

000
SAUS46 KSEW 301547
MTRSMP
SPECI KSMP 301545Z AUTO VRB05KT 1/4SM FG BKN005 BKN009 OVC016 05/04
A3004 RMK AO2 RAB1459E32 P0010 T00500044 $





000
SAUS46 KSEW 301538
MTRSMP
SPECI KSMP 301534Z AUTO 26007KT 220V310 1/2SM FG BKN003 OVC009 05/04
A3003 RMK AO2 RAB1459E32 P0010 T00500039 $





000
SAUS46 KSEW 301342
MTRSMP
SPECI KSMP 301338Z AUTO 27009G21KT 220V300 1/2SM -RA FG VV002 05/04
A2999 RMK AO2 RAE01B15 P0002 T00500039 $





000
SAUS46 KSEW 301312 COR
MTRSMP
SPECI KSMP 301306Z AUTO 26007G17KT 110V300 1/4SM FG VV002 05/04
A2998 RMK AO2 RAE01 P0000 T00500039 $





000
SAUS46 KSEW 301308
MTRSMP
SPECI KSMP 301306Z AUTO 26007G17KT 110V300 1/4SM FG VV002 05/04
A2998 RMK AO2 RAE01 P0000 T00500039 $





000
SAUS46 KSEW 301259
MTRSMP
METAR KSMP 301256Z AUTO 27008G18KT 230V300 1/2SM -RA FG VV002 05/04
A2998 RMK AO2 RAB09E31B45 SLP154 P0003 T00500039 $





000
SAUS46 KSEW 301243
MTRSMP
SPECI KSMP 301241Z AUTO 28007G16KT 230V310 1/4SM FG VV002 05/04
A2998 RMK AO2 RAB09E31 P0001 T00500044 $





000
SAUS46 KSEW 301029
MTRSMP
SPECI KSMP 301023Z AUTO VRB06KT 1/2SM FG BKN002 BKN014 OVC050 04/03
A2999 RMK AO2 T00440033 $





000
SAUS46 KSEW 301006
MTRSMP
SPECI KSMP 301004Z AUTO VRB06KT 1/2SM FG SCT003 BKN014 OVC028 04/03
A2999 RMK AO2 T00440033 $





000
SAUS46 KSEW 300659
MTRSMP
METAR KSMP 300656Z AUTO 29010G18KT 6SM BR BKN005 OVC011 06/04 A2996
RMK AO2 CIG 002V008 SLP143 T00560044 $





000
SAUS46 KSEW 300257
MTRSMP
METAR KSMP 300256Z AUTO 28010G21KT 090V300 1/2SM FG VV002 08/07
A2990 RMK AO2 RAB16E25B46E55 SLP123 P0001 60014 T00830072 56005 $





000
SAUS46 KSEW 292104
MTRSMP
METAR KSMP 292056Z AUTO 28009G17KT 240V310 10SM FEW017 BKN021 OVC065
10/07 A2993 RMK AO2 RAB40E53 SLP131 P0000 60000 T01000072 56003 $





000
SAUS46 KSEW 291204
MTRSMP
METAR KSMP 291156Z AUTO 25005KT 10SM CLR 08/06 A2994 RMK AO2 SLP126
T00780056 10106 20078 55004 $





000
SAUS46 KSEW 290758
MTRSMP
METAR KSMP 290756Z AUTO VRB05KT 10SM CLR 09/07 A2996 RMK AO2 SLP130
T00940067 401890094 $





000
SAUS46 KSEW 290657
MTRSMP
METAR KSMP 290656Z AUTO 23004KT 10SM CLR 10/06 A2997 RMK AO2 SLP133
T01000061 $





000
SAUS46 KSEW 290359
MTRSMP
SPECI KSMP 290358Z AUTO 22005KT 1 1/4SM BR BKN001 11/09 A3000 RMK
AO2 T01060089 $





000
SAUS46 KSEW 290358
MTRSMP
METAR KSMP 290356Z AUTO 23005KT 2SM BR BKN001 11/09 A3000 RMK AO2
VIS 1/2V5 SLP149 T01060089 $





    US Dept of Commerce
    National Oceanic and Atmospheric Administration
    National Weather Service
    1325 East West Highway
    Silver Spring, MD 20910
    Page Author: NWS Internet Services Team
Disclaimer
Information Quality
Credits
Glossary
Privacy Policy
Freedom of Information Act (FOIA)
About Us
Career Opportunities